SVA596 OERK-OMDB
Flight info
| Callsign | SVA596 |
|---|---|
| Flight time | 1h 30m |
| Altitude | 37000 |
| Route | RAPMA DCT DEGNO DCT OBSEP DCT MIGMA DCT RIBOT M550 GOLGU DCT UKRAG G783 ELUDA/N0466F350 G783 ASPED Q308 KIPOK Q568 IMPED |
| Aircraft | A21N/M-SDE2E3FGHIRWXY/LB1 |
Departure
| Time | 2026-04-23 18:57 |
|---|---|
| Airport | King Khalid International Airport (OERK) |
Arrival
| Time | 2026-04-23 20:27 |
|---|---|
| Airport | Dubai International Airport (OMDB) |
| Time | Latitude | Longitude | Altitude | Speed | Heading |
|---|---|---|---|---|---|
| 2026-04-23 18:26 | 24.95948 | 46.70482 | 2050 ft | 0 kts | 220° |
| 2026-04-23 18:43 | 24.95949 | 46.70482 | 2050 ft | 1 kts | 220° |
| 2026-04-23 18:43 | 24.95960 | 46.70492 | 2050 ft | 2 kts | 219° |
| 2026-04-23 18:43 | 24.95971 | 46.70502 | 2050 ft | 2 kts | 220° |
| 2026-04-23 18:44 | 24.95983 | 46.70513 | 2050 ft | 2 kts | 220° |
| 2026-04-23 18:44 | 24.95995 | 46.70524 | 2049 ft | 2 kts | 220° |
| 2026-04-23 18:44 | 24.96006 | 46.70534 | 2049 ft | 2 kts | 219° |
| 2026-04-23 18:44 | 24.96018 | 46.70545 | 2049 ft | 2 kts | 220° |
| 2026-04-23 18:45 | 24.96030 | 46.70555 | 2048 ft | 2 kts | 220° |
| 2026-04-23 18:45 | 24.96037 | 46.70562 | 2048 ft | 2 kts | 217° |
| 2026-04-23 18:45 | 24.96051 | 46.70569 | 2048 ft | 2 kts | 184° |
| 2026-04-23 18:45 | 24.96066 | 46.70567 | 2048 ft | 1 kts | 158° |
| 2026-04-23 18:46 | 24.96073 | 46.70563 | 2048 ft | 1 kts | 147° |
| 2026-04-23 18:46 | 24.96076 | 46.70561 | 2048 ft | 0 kts | 150° |
| 2026-04-23 18:49 | 24.96075 | 46.70562 | 2048 ft | 1 kts | 150° |
| 2026-04-23 18:49 | 24.96047 | 46.70579 | 2048 ft | 8 kts | 150° |
| 2026-04-23 18:49 | 24.95980 | 46.70622 | 2048 ft | 14 kts | 149° |
| 2026-04-23 18:50 | 24.95916 | 46.70663 | 2048 ft | 17 kts | 149° |
| 2026-04-23 18:50 | 24.95885 | 46.70806 | 2043 ft | 19 kts | 59° |
| 2026-04-23 18:50 | 24.95927 | 46.70884 | 2040 ft | 2 kts | 62° |
| 2026-04-23 18:50 | 24.95942 | 46.70929 | 2039 ft | 9 kts | 89° |
| 2026-04-23 18:51 | 24.95886 | 46.70995 | 2039 ft | 14 kts | 154° |
| 2026-04-23 18:51 | 24.95787 | 46.71061 | 2039 ft | 19 kts | 150° |
| 2026-04-23 18:51 | 24.95659 | 46.71143 | 2038 ft | 23 kts | 152° |
| 2026-04-23 18:51 | 24.95509 | 46.71238 | 2037 ft | 26 kts | 153° |
| 2026-04-23 18:52 | 24.95348 | 46.71346 | 2033 ft | 24 kts | 150° |
| 2026-04-23 18:52 | 24.95196 | 46.71438 | 2031 ft | 24 kts | 151° |
| 2026-04-23 18:52 | 24.95042 | 46.71533 | 2030 ft | 25 kts | 151° |
| 2026-04-23 18:52 | 24.94882 | 46.71630 | 2028 ft | 26 kts | 151° |
| 2026-04-23 18:53 | 24.94717 | 46.71733 | 2026 ft | 27 kts | 150° |
| 2026-04-23 18:53 | 24.94549 | 46.71840 | 2024 ft | 27 kts | 149° |
| 2026-04-23 18:53 | 24.94441 | 46.71916 | 2024 ft | 12 kts | 128° |
| 2026-04-23 18:53 | 24.94455 | 46.72011 | 2024 ft | 14 kts | 59° |
| 2026-04-23 18:54 | 24.94478 | 46.72054 | 2023 ft | 0 kts | 60° |
| 2026-04-23 18:54 | 24.94484 | 46.72065 | 2023 ft | 3 kts | 60° |
| 2026-04-23 18:54 | 24.94502 | 46.72100 | 2022 ft | 6 kts | 60° |
| 2026-04-23 18:54 | 24.94531 | 46.72156 | 2021 ft | 9 kts | 60° |
| 2026-04-23 18:55 | 24.94562 | 46.72175 | 2021 ft | 5 kts | 341° |
| 2026-04-23 18:55 | 24.94566 | 46.72173 | 2021 ft | 0 kts | 332° |
| 2026-04-23 18:55 | 24.94572 | 46.72169 | 2021 ft | 0 kts | 331° |
| 2026-04-23 18:55 | 24.94585 | 46.72162 | 2021 ft | 17 kts | 331° |
| 2026-04-23 18:56 | 24.94783 | 46.72043 | 2024 ft | 73 kts | 332° |
| 2026-04-23 18:56 | 24.95015 | 46.71898 | 2024 ft | 101 kts | 328° |
| 2026-04-23 18:56 | 24.95847 | 46.71366 | 2034 ft | 170 kts | 325° |
| 2026-04-23 18:56 | 24.96946 | 46.70665 | 2606 ft | 184 kts | 332° |
| 2026-04-23 18:57 | 24.98022 | 46.69992 | 3559 ft | 181 kts | 338° |
| 2026-04-23 18:57 | 24.99187 | 46.69442 | 4321 ft | 186 kts | 344° |
| 2026-04-23 18:57 | 25.00263 | 46.69033 | 4746 ft | 199 kts | 346° |
| 2026-04-23 18:57 | 25.01161 | 46.68705 | 5050 ft | 210 kts | 345° |
| 2026-04-23 18:58 | 25.02346 | 46.68270 | 5440 ft | 224 kts | 345° |
| 2026-04-23 18:58 | 25.03868 | 46.67712 | 5905 ft | 241 kts | 347° |
| 2026-04-23 18:58 | 25.05596 | 46.67631 | 6209 ft | 259 kts | 21° |
| 2026-04-23 18:58 | 25.07075 | 46.68742 | 6731 ft | 264 kts | 58° |
| 2026-04-23 18:59 | 25.07678 | 46.70657 | 7355 ft | 268 kts | 94° |
| 2026-04-23 18:59 | 25.07148 | 46.72574 | 8045 ft | 268 kts | 129° |
| 2026-04-23 18:59 | 25.05758 | 46.73937 | 8845 ft | 268 kts | 147° |
| 2026-04-23 18:59 | 25.04227 | 46.75145 | 9607 ft | 274 kts | 147° |
| 2026-04-23 19:00 | 25.02706 | 46.76411 | 10355 ft | 279 kts | 146° |
| 2026-04-23 19:00 | 25.01140 | 46.77781 | 10852 ft | 294 kts | 145° |
| 2026-04-23 19:00 | 24.99522 | 46.79256 | 11251 ft | 312 kts | 144° |
| 2026-04-23 19:00 | 24.97814 | 46.80854 | 11619 ft | 330 kts | 143° |
| 2026-04-23 19:01 | 24.96017 | 46.82566 | 11937 ft | 348 kts | 143° |
| 2026-04-23 19:01 | 24.94156 | 46.84356 | 12222 ft | 366 kts | 143° |
| 2026-04-23 19:01 | 24.92191 | 46.86260 | 12505 ft | 382 kts | 143° |
| 2026-04-23 19:01 | 24.90147 | 46.88244 | 12975 ft | 392 kts | 142° |
| 2026-04-23 19:02 | 24.88795 | 46.89564 | 13408 ft | 395 kts | 143° |
| 2026-04-23 19:02 | 24.86025 | 46.92262 | 14210 ft | 401 kts | 143° |
| 2026-04-23 19:02 | 24.83902 | 46.94329 | 14741 ft | 407 kts | 143° |
| 2026-04-23 19:02 | 24.81763 | 46.96413 | 15302 ft | 412 kts | 142° |
| 2026-04-23 19:03 | 24.79574 | 46.98540 | 15863 ft | 417 kts | 142° |
| 2026-04-23 19:03 | 24.77414 | 47.00644 | 16405 ft | 421 kts | 142° |
| 2026-04-23 19:03 | 24.75191 | 47.02804 | 16906 ft | 426 kts | 142° |
| 2026-04-23 19:03 | 24.72962 | 47.04972 | 17412 ft | 431 kts | 142° |
| 2026-04-23 19:04 | 24.70692 | 47.07179 | 17923 ft | 435 kts | 142° |
| 2026-04-23 19:04 | 24.68410 | 47.09397 | 18422 ft | 439 kts | 142° |
| 2026-04-23 19:04 | 24.66077 | 47.11664 | 18925 ft | 442 kts | 142° |
| 2026-04-23 19:04 | 24.63760 | 47.13914 | 19393 ft | 446 kts | 142° |
| 2026-04-23 19:05 | 24.61426 | 47.16175 | 19836 ft | 451 kts | 142° |
| 2026-04-23 19:05 | 24.59049 | 47.18475 | 20274 ft | 454 kts | 142° |
| 2026-04-23 19:05 | 24.56657 | 47.20793 | 20704 ft | 458 kts | 142° |
| 2026-04-23 19:05 | 24.54287 | 47.23090 | 21256 ft | 459 kts | 142° |
| 2026-04-23 19:06 | 24.51872 | 47.25428 | 21739 ft | 461 kts | 142° |
| 2026-04-23 19:06 | 24.49447 | 47.27772 | 22179 ft | 464 kts | 142° |
| 2026-04-23 19:06 | 24.46997 | 47.30142 | 22559 ft | 468 kts | 142° |
| 2026-04-23 19:06 | 24.44536 | 47.32519 | 22921 ft | 473 kts | 142° |
| 2026-04-23 19:07 | 24.42073 | 47.34892 | 23308 ft | 476 kts | 142° |
| 2026-04-23 19:07 | 24.39570 | 47.37308 | 23710 ft | 479 kts | 142° |
| 2026-04-23 19:07 | 24.37032 | 47.39757 | 24101 ft | 482 kts | 142° |
| 2026-04-23 19:07 | 24.34501 | 47.42197 | 24472 ft | 486 kts | 142° |
| 2026-04-23 19:08 | 24.31936 | 47.44671 | 24900 ft | 487 kts | 142° |
| 2026-04-23 19:08 | 24.29413 | 47.47104 | 25386 ft | 487 kts | 142° |
| 2026-04-23 19:08 | 24.26855 | 47.49565 | 25873 ft | 487 kts | 142° |
| 2026-04-23 19:08 | 24.24328 | 47.51997 | 26350 ft | 487 kts | 142° |
| 2026-04-23 19:09 | 24.21773 | 47.54452 | 26799 ft | 487 kts | 142° |
| 2026-04-23 19:09 | 24.19221 | 47.56909 | 27230 ft | 487 kts | 142° |
| 2026-04-23 19:09 | 24.16656 | 47.59372 | 27667 ft | 488 kts | 143° |
| 2026-04-23 19:09 | 24.14133 | 47.61797 | 28070 ft | 489 kts | 143° |
| 2026-04-23 19:10 | 24.11564 | 47.64260 | 28510 ft | 488 kts | 143° |
| 2026-04-23 19:10 | 24.08986 | 47.66737 | 28961 ft | 488 kts | 143° |
| 2026-04-23 19:10 | 24.06461 | 47.69175 | 29375 ft | 487 kts | 143° |
| 2026-04-23 19:10 | 24.03906 | 47.71636 | 29747 ft | 488 kts | 143° |
| 2026-04-23 19:11 | 24.01346 | 47.74097 | 30171 ft | 487 kts | 143° |
| 2026-04-23 19:11 | 23.98810 | 47.76530 | 30614 ft | 486 kts | 143° |
| 2026-04-23 19:11 | 23.96257 | 47.78972 | 31056 ft | 484 kts | 143° |
| 2026-04-23 19:11 | 23.93740 | 47.81376 | 31444 ft | 484 kts | 143° |
| 2026-04-23 19:12 | 23.92031 | 47.83007 | 31675 ft | 484 kts | 143° |
| 2026-04-23 19:12 | 23.88629 | 47.86253 | 32151 ft | 484 kts | 143° |
| 2026-04-23 19:12 | 23.86075 | 47.88678 | 32545 ft | 482 kts | 143° |
| 2026-04-23 19:12 | 23.83557 | 47.91066 | 32878 ft | 482 kts | 143° |
| 2026-04-23 19:13 | 23.81030 | 47.93467 | 33190 ft | 482 kts | 143° |
| 2026-04-23 19:13 | 23.78475 | 47.95900 | 33558 ft | 481 kts | 143° |
| 2026-04-23 19:13 | 23.75956 | 47.98299 | 33870 ft | 481 kts | 143° |
| 2026-04-23 19:13 | 23.73441 | 48.00693 | 34121 ft | 482 kts | 144° |
| 2026-04-23 19:14 | 23.70894 | 48.03112 | 34392 ft | 482 kts | 144° |
| 2026-04-23 19:14 | 23.68363 | 48.05519 | 34636 ft | 483 kts | 143° |
| 2026-04-23 19:14 | 23.65818 | 48.07937 | 34877 ft | 483 kts | 144° |
| 2026-04-23 19:14 | 23.63275 | 48.10354 | 35117 ft | 484 kts | 144° |
| 2026-04-23 19:15 | 23.60711 | 48.12788 | 35304 ft | 485 kts | 144° |
| 2026-04-23 19:15 | 23.58148 | 48.15218 | 35445 ft | 488 kts | 144° |
| 2026-04-23 19:15 | 23.55594 | 48.17640 | 35617 ft | 489 kts | 144° |
| 2026-04-23 19:15 | 23.52997 | 48.20103 | 35817 ft | 490 kts | 144° |
| 2026-04-23 19:16 | 23.50435 | 48.22532 | 35990 ft | 491 kts | 144° |
| 2026-04-23 19:16 | 23.47841 | 48.24990 | 36112 ft | 493 kts | 144° |
| 2026-04-23 19:16 | 23.45231 | 48.27459 | 36232 ft | 496 kts | 144° |
| 2026-04-23 19:17 | 23.40145 | 48.32651 | 36471 ft | 504 kts | 138° |
| 2026-04-23 19:17 | 23.37801 | 48.35515 | 36619 ft | 508 kts | 134° |
| 2026-04-23 19:17 | 23.35631 | 48.38535 | 36754 ft | 512 kts | 130° |
| 2026-04-23 19:17 | 23.33604 | 48.41769 | 36880 ft | 515 kts | 126° |
| 2026-04-23 19:18 | 23.29746 | 48.48427 | 36922 ft | 518 kts | 125° |
| 2026-04-23 19:18 | 23.25907 | 48.55062 | 36924 ft | 519 kts | 126° |
| 2026-04-23 19:19 | 23.20062 | 48.65042 | 36914 ft | 520 kts | 126° |
| 2026-04-23 19:20 | 23.14249 | 48.74970 | 36903 ft | 522 kts | 126° |
| 2026-04-23 19:20 | 23.10322 | 48.81643 | 36900 ft | 522 kts | 126° |
| 2026-04-23 19:21 | 23.04455 | 48.91621 | 36893 ft | 523 kts | 124° |
| 2026-04-23 19:22 | 23.01227 | 48.98776 | 36886 ft | 527 kts | 111° |
| 2026-04-23 19:22 | 22.98869 | 49.10419 | 36874 ft | 527 kts | 93° |
| 2026-04-23 19:23 | 22.98473 | 49.18295 | 36879 ft | 526 kts | 91° |
| 2026-04-23 19:24 | 22.97902 | 49.30232 | 36871 ft | 527 kts | 91° |
| 2026-04-23 19:24 | 22.97238 | 49.42172 | 36869 ft | 528 kts | 92° |
| 2026-04-23 19:25 | 22.96330 | 49.58002 | 36869 ft | 527 kts | 91° |
| 2026-04-23 19:26 | 22.95636 | 49.69979 | 36866 ft | 528 kts | 92° |
| 2026-04-23 19:27 | 22.94460 | 49.89820 | 36869 ft | 527 kts | 92° |
| 2026-04-23 19:28 | 22.93504 | 50.05698 | 36865 ft | 527 kts | 92° |
| 2026-04-23 19:29 | 22.92773 | 50.17617 | 36854 ft | 527 kts | 92° |
| 2026-04-23 19:30 | 22.92034 | 50.29568 | 36849 ft | 527 kts | 92° |
| 2026-04-23 19:31 | 22.91287 | 50.41505 | 36845 ft | 526 kts | 92° |
| 2026-04-23 19:31 | 22.90783 | 50.49430 | 36848 ft | 525 kts | 92° |
| 2026-04-23 19:32 | 22.90282 | 50.57309 | 36847 ft | 525 kts | 92° |
| 2026-04-23 19:32 | 22.89764 | 50.65240 | 36837 ft | 525 kts | 92° |
| 2026-04-23 19:33 | 22.89220 | 50.73195 | 36831 ft | 525 kts | 92° |
| 2026-04-23 19:33 | 22.88430 | 50.85040 | 36837 ft | 524 kts | 92° |
| 2026-04-23 19:34 | 22.87907 | 50.92959 | 36836 ft | 523 kts | 92° |
| 2026-04-23 19:35 | 22.87128 | 51.04793 | 36838 ft | 523 kts | 92° |
| 2026-04-23 19:35 | 22.86596 | 51.12702 | 36843 ft | 522 kts | 92° |
| 2026-04-23 19:36 | 22.86063 | 51.20513 | 36839 ft | 522 kts | 92° |
| 2026-04-23 19:36 | 22.85522 | 51.28419 | 36839 ft | 521 kts | 92° |
| 2026-04-23 19:37 | 22.84993 | 51.36248 | 36840 ft | 521 kts | 91° |
| 2026-04-23 19:37 | 22.85058 | 51.44137 | 36838 ft | 516 kts | 81° |
| 2026-04-23 19:38 | 22.86193 | 51.51785 | 36837 ft | 511 kts | 72° |
| 2026-04-23 19:38 | 22.88302 | 51.59135 | 36830 ft | 507 kts | 65° |
| 2026-04-23 19:39 | 22.90702 | 51.66370 | 36824 ft | 506 kts | 65° |
| 2026-04-23 19:39 | 22.93051 | 51.73582 | 36829 ft | 506 kts | 65° |
| 2026-04-23 19:40 | 22.95399 | 51.80863 | 36823 ft | 507 kts | 65° |
| 2026-04-23 19:40 | 22.97710 | 51.88064 | 36828 ft | 505 kts | 65° |
| 2026-04-23 19:41 | 23.00023 | 51.95269 | 36836 ft | 504 kts | 65° |
| 2026-04-23 19:41 | 23.02336 | 52.02483 | 36840 ft | 504 kts | 66° |
| 2026-04-23 19:42 | 23.04642 | 52.09702 | 36840 ft | 504 kts | 66° |
| 2026-04-23 19:42 | 23.06937 | 52.16890 | 36837 ft | 505 kts | 66° |
| 2026-04-23 19:43 | 23.09230 | 52.24089 | 36835 ft | 504 kts | 66° |
| 2026-04-23 19:43 | 23.11546 | 52.31319 | 36837 ft | 504 kts | 65° |
| 2026-04-23 19:44 | 23.13839 | 52.38485 | 36839 ft | 503 kts | 66° |
| 2026-04-23 19:44 | 23.16113 | 52.45660 | 36839 ft | 504 kts | 66° |
| 2026-04-23 19:45 | 23.18070 | 52.52994 | 36835 ft | 509 kts | 73° |
| 2026-04-23 19:45 | 23.19255 | 52.60607 | 36830 ft | 511 kts | 78° |
| 2026-04-23 19:46 | 23.20188 | 52.68301 | 36828 ft | 512 kts | 79° |
| 2026-04-23 19:46 | 23.21115 | 52.75966 | 36829 ft | 512 kts | 79° |
| 2026-04-23 19:47 | 23.21899 | 52.82348 | 36830 ft | 512 kts | 79° |
| 2026-04-23 19:47 | 23.23000 | 52.91264 | 36830 ft | 512 kts | 79° |
| 2026-04-23 19:48 | 23.23945 | 52.98925 | 36827 ft | 511 kts | 79° |
| 2026-04-23 19:48 | 23.24890 | 53.06599 | 36829 ft | 512 kts | 79° |
| 2026-04-23 19:49 | 23.25821 | 53.14224 | 36831 ft | 512 kts | 79° |
| 2026-04-23 19:49 | 23.26754 | 53.21882 | 36831 ft | 512 kts | 79° |
| 2026-04-23 19:50 | 23.27683 | 53.29539 | 36832 ft | 510 kts | 79° |
| 2026-04-23 19:50 | 23.28607 | 53.37163 | 36831 ft | 511 kts | 79° |
| 2026-04-23 19:51 | 23.29528 | 53.44818 | 36834 ft | 511 kts | 79° |
| 2026-04-23 19:51 | 23.30448 | 53.52501 | 36831 ft | 510 kts | 79° |
| 2026-04-23 19:52 | 23.31363 | 53.60154 | 36835 ft | 510 kts | 79° |
| 2026-04-23 19:52 | 23.32272 | 53.67791 | 36830 ft | 511 kts | 79° |
| 2026-04-23 19:53 | 23.33171 | 53.75440 | 36833 ft | 511 kts | 79° |
| 2026-04-23 19:53 | 23.34071 | 53.83120 | 36832 ft | 512 kts | 79° |
| 2026-04-23 19:54 | 23.34970 | 53.90776 | 36830 ft | 512 kts | 79° |
| 2026-04-23 19:54 | 23.35869 | 53.98455 | 36832 ft | 511 kts | 79° |
| 2026-04-23 19:55 | 23.36759 | 54.06095 | 36834 ft | 511 kts | 79° |
| 2026-04-23 19:55 | 23.37646 | 54.13759 | 36832 ft | 510 kts | 79° |
| 2026-04-23 19:56 | 23.38527 | 54.21410 | 36828 ft | 510 kts | 79° |
| 2026-04-23 19:56 | 23.39406 | 54.29065 | 36823 ft | 509 kts | 79° |
| 2026-04-23 19:57 | 23.40276 | 54.36653 | 36820 ft | 509 kts | 79° |
| 2026-04-23 19:57 | 23.41147 | 54.44298 | 36818 ft | 510 kts | 79° |
| 2026-04-23 19:58 | 23.42012 | 54.51944 | 36819 ft | 509 kts | 79° |
| 2026-04-23 19:58 | 23.42873 | 54.59578 | 36822 ft | 509 kts | 79° |
| 2026-04-23 19:59 | 23.43732 | 54.67231 | 36818 ft | 508 kts | 79° |
| 2026-04-23 19:59 | 23.44581 | 54.74853 | 36819 ft | 508 kts | 79° |
| 2026-04-23 20:00 | 23.45432 | 54.82514 | 36822 ft | 509 kts | 79° |
| 2026-04-23 20:00 | 23.46281 | 54.90181 | 36824 ft | 509 kts | 79° |
| 2026-04-23 20:01 | 23.47124 | 54.97802 | 36824 ft | 508 kts | 79° |
| 2026-04-23 20:01 | 23.47959 | 55.05428 | 36825 ft | 507 kts | 79° |
| 2026-04-23 20:02 | 23.48790 | 55.13023 | 36821 ft | 508 kts | 79° |
| 2026-04-23 20:02 | 23.49626 | 55.20704 | 36821 ft | 507 kts | 79° |
| 2026-04-23 20:03 | 23.50637 | 55.28254 | 36814 ft | 501 kts | 70° |
| 2026-04-23 20:03 | 23.51824 | 55.31763 | 36822 ft | 492 kts | 58° |
| 2026-04-23 20:03 | 23.53587 | 55.34921 | 36826 ft | 482 kts | 46° |
| 2026-04-23 20:03 | 23.55820 | 55.37606 | 36832 ft | 471 kts | 35° |
| 2026-04-23 20:04 | 23.58401 | 55.39748 | 36832 ft | 460 kts | 24° |
| 2026-04-23 20:04 | 23.64151 | 55.42361 | 36840 ft | 443 kts | 7° |
| 2026-04-23 20:05 | 23.70153 | 55.44071 | 36840 ft | 442 kts | 7° |
| 2026-04-23 20:05 | 23.76142 | 55.45796 | 36840 ft | 443 kts | 7° |
| 2026-04-23 20:06 | 23.82098 | 55.47555 | 36840 ft | 442 kts | 7° |
| 2026-04-23 20:06 | 23.88093 | 55.49331 | 36513 ft | 442 kts | 7° |
| 2026-04-23 20:06 | 23.91042 | 55.50209 | 36275 ft | 440 kts | 7° |
| 2026-04-23 20:07 | 23.93993 | 55.51172 | 36036 ft | 441 kts | 11° |
| 2026-04-23 20:07 | 23.96912 | 55.52382 | 35797 ft | 444 kts | 16° |
| 2026-04-23 20:07 | 23.99725 | 55.53822 | 35487 ft | 446 kts | 20° |
| 2026-04-23 20:07 | 24.02455 | 55.55509 | 35037 ft | 451 kts | 25° |
| 2026-04-23 20:08 | 24.05102 | 55.57459 | 34472 ft | 455 kts | 30° |
| 2026-04-23 20:08 | 24.07573 | 55.59605 | 33828 ft | 461 kts | 35° |
| 2026-04-23 20:08 | 24.09996 | 55.61965 | 33119 ft | 464 kts | 37° |
| 2026-04-23 20:08 | 24.12437 | 55.64396 | 32314 ft | 467 kts | 38° |
| 2026-04-23 20:09 | 24.14861 | 55.66820 | 31575 ft | 468 kts | 39° |
| 2026-04-23 20:09 | 24.17292 | 55.69258 | 30852 ft | 468 kts | 39° |
| 2026-04-23 20:09 | 24.19696 | 55.71664 | 30129 ft | 467 kts | 39° |
| 2026-04-23 20:09 | 24.22078 | 55.74041 | 29382 ft | 467 kts | 39° |
| 2026-04-23 20:10 | 24.23692 | 55.75648 | 28872 ft | 468 kts | 39° |
| 2026-04-23 20:10 | 24.26933 | 55.78878 | 27816 ft | 469 kts | 40° |
| 2026-04-23 20:10 | 24.29318 | 55.81255 | 27024 ft | 469 kts | 40° |
| 2026-04-23 20:10 | 24.31735 | 55.83662 | 26193 ft | 471 kts | 39° |
| 2026-04-23 20:11 | 24.34152 | 55.86069 | 25350 ft | 472 kts | 40° |
| 2026-04-23 20:11 | 24.36593 | 55.88501 | 24475 ft | 474 kts | 40° |
| 2026-04-23 20:11 | 24.39039 | 55.90939 | 23744 ft | 471 kts | 39° |
| 2026-04-23 20:11 | 24.41494 | 55.93385 | 23230 ft | 468 kts | 40° |
| 2026-04-23 20:12 | 24.43894 | 55.95777 | 22683 ft | 464 kts | 40° |
| 2026-04-23 20:12 | 24.46284 | 55.98163 | 22119 ft | 460 kts | 40° |
| 2026-04-23 20:12 | 24.48626 | 56.00503 | 21558 ft | 455 kts | 40° |
| 2026-04-23 20:12 | 24.50983 | 56.02861 | 20995 ft | 451 kts | 40° |
| 2026-04-23 20:13 | 24.53290 | 56.05165 | 20438 ft | 446 kts | 40° |
| 2026-04-23 20:13 | 24.55598 | 56.07479 | 19872 ft | 442 kts | 40° |
| 2026-04-23 20:13 | 24.57877 | 56.09710 | 19308 ft | 436 kts | 36° |
| 2026-04-23 20:13 | 24.60379 | 56.11485 | 18760 ft | 428 kts | 25° |
| 2026-04-23 20:14 | 24.63148 | 56.12680 | 18196 ft | 420 kts | 13° |
| 2026-04-23 20:14 | 24.65995 | 56.13332 | 17649 ft | 414 kts | 7° |
| 2026-04-23 20:14 | 24.68817 | 56.13833 | 17098 ft | 411 kts | 6° |
| 2026-04-23 20:14 | 24.71656 | 56.14322 | 16524 ft | 408 kts | 6° |
| 2026-04-23 20:15 | 24.74472 | 56.14819 | 15949 ft | 406 kts | 7° |
| 2026-04-23 20:15 | 24.77273 | 56.15194 | 15371 ft | 402 kts | 359° |
| 2026-04-23 20:15 | 24.80044 | 56.14955 | 15007 ft | 402 kts | 347° |
| 2026-04-23 20:15 | 24.82746 | 56.14069 | 14930 ft | 400 kts | 336° |
| 2026-04-23 20:16 | 24.85277 | 56.12866 | 14919 ft | 400 kts | 333° |
| 2026-04-23 20:16 | 24.87817 | 56.11590 | 14913 ft | 400 kts | 332° |
| 2026-04-23 20:16 | 24.90128 | 56.09904 | 14742 ft | 395 kts | 314° |
| 2026-04-23 20:16 | 24.91699 | 56.07467 | 14011 ft | 394 kts | 295° |
| 2026-04-23 20:17 | 24.92815 | 56.04677 | 13055 ft | 399 kts | 291° |
| 2026-04-23 20:17 | 24.93915 | 56.01877 | 12273 ft | 399 kts | 291° |
| 2026-04-23 20:17 | 24.95037 | 55.99100 | 11566 ft | 397 kts | 292° |
| 2026-04-23 20:17 | 24.96195 | 55.96309 | 10840 ft | 393 kts | 292° |
| 2026-04-23 20:18 | 24.97318 | 55.93646 | 9958 ft | 380 kts | 292° |
| 2026-04-23 20:18 | 24.98416 | 55.91072 | 9152 ft | 364 kts | 292° |
| 2026-04-23 20:18 | 24.99482 | 55.88582 | 8379 ft | 349 kts | 293° |
| 2026-04-23 20:18 | 25.00487 | 55.86238 | 7656 ft | 336 kts | 293° |
| 2026-04-23 20:19 | 25.01474 | 55.83934 | 6940 ft | 324 kts | 293° |
| 2026-04-23 20:19 | 25.02420 | 55.81732 | 6256 ft | 313 kts | 293° |
| 2026-04-23 20:19 | 25.03323 | 55.79623 | 5601 ft | 303 kts | 294° |
| 2026-04-23 20:19 | 25.04211 | 55.77549 | 4996 ft | 296 kts | 294° |
| 2026-04-23 20:20 | 25.05074 | 55.75538 | 4612 ft | 291 kts | 295° |
| 2026-04-23 20:20 | 25.05938 | 55.73525 | 4268 ft | 286 kts | 295° |
| 2026-04-23 20:20 | 25.06784 | 55.71554 | 4029 ft | 278 kts | 296° |
| 2026-04-23 20:20 | 25.07596 | 55.69663 | 3995 ft | 268 kts | 296° |
| 2026-04-23 20:21 | 25.08303 | 55.67777 | 3991 ft | 264 kts | 291° |
| 2026-04-23 20:21 | 25.09028 | 55.65992 | 3981 ft | 247 kts | 298° |
| 2026-04-23 20:21 | 25.09825 | 55.64352 | 3976 ft | 234 kts | 301° |
| 2026-04-23 20:21 | 25.10672 | 55.62794 | 3983 ft | 235 kts | 303° |
| 2026-04-23 20:22 | 25.11535 | 55.61276 | 3882 ft | 232 kts | 303° |
| 2026-04-23 20:22 | 25.12387 | 55.59770 | 3556 ft | 233 kts | 303° |
| 2026-04-23 20:22 | 25.13219 | 55.58274 | 3369 ft | 221 kts | 303° |
| 2026-04-23 20:22 | 25.13974 | 55.56903 | 3193 ft | 197 kts | 303° |
| 2026-04-23 20:23 | 25.14651 | 55.55671 | 2992 ft | 180 kts | 304° |
| 2026-04-23 20:23 | 25.15264 | 55.54551 | 2944 ft | 160 kts | 304° |
| 2026-04-23 20:23 | 25.15843 | 55.53502 | 2805 ft | 159 kts | 304° |
| 2026-04-23 20:23 | 25.16417 | 55.52463 | 2602 ft | 157 kts | 304° |
| 2026-04-23 20:24 | 25.16985 | 55.51432 | 2438 ft | 155 kts | 305° |
| 2026-04-23 20:24 | 25.17541 | 55.50424 | 2234 ft | 152 kts | 304° |
| 2026-04-23 20:24 | 25.18085 | 55.49437 | 2039 ft | 151 kts | 305° |
| 2026-04-23 20:24 | 25.18637 | 55.48436 | 1842 ft | 151 kts | 306° |
| 2026-04-23 20:25 | 25.19183 | 55.47448 | 1647 ft | 150 kts | 305° |
| 2026-04-23 20:25 | 25.19732 | 55.46453 | 1453 ft | 150 kts | 306° |
| 2026-04-23 20:25 | 25.20279 | 55.45465 | 1260 ft | 150 kts | 305° |
| 2026-04-23 20:25 | 25.20819 | 55.44491 | 1071 ft | 149 kts | 304° |
| 2026-04-23 20:26 | 25.21370 | 55.43496 | 878 ft | 149 kts | 304° |
| 2026-04-23 20:26 | 25.21913 | 55.42520 | 682 ft | 148 kts | 304° |
| 2026-04-23 20:26 | 25.22457 | 55.41539 | 487 ft | 148 kts | 303° |
| 2026-04-23 20:26 | 25.22990 | 55.40568 | 299 ft | 147 kts | 303° |
| 2026-04-23 20:27 | 25.23528 | 55.39608 | 118 ft | 146 kts | 302° |
| 2026-04-23 20:27 | 25.24034 | 55.38696 | 56 ft | 125 kts | 302° |
| 2026-04-23 20:27 | 25.24331 | 55.38154 | 52 ft | 41 kts | 302° |
| 2026-04-23 20:27 | 25.24435 | 55.37962 | 52 ft | 19 kts | 293° |
| 2026-04-23 20:28 | 25.24404 | 55.37870 | 52 ft | 4 kts | 212° |
| 2026-04-23 20:28 | 25.24396 | 55.37864 | 52 ft | 1 kts | 212° |
| 2026-04-23 20:28 | 25.24382 | 55.37855 | 52 ft | 3 kts | 212° |
| 2026-04-23 20:28 | 25.24355 | 55.37835 | 52 ft | 5 kts | 219° |
| 2026-04-23 20:29 | 25.24339 | 55.37783 | 49 ft | 10 kts | 280° |
| 2026-04-23 20:29 | 25.24383 | 55.37696 | 46 ft | 15 kts | 303° |
| 2026-04-23 20:29 | 25.24442 | 55.37593 | 47 ft | 15 kts | 303° |
| 2026-04-23 20:29 | 25.24499 | 55.37493 | 49 ft | 15 kts | 302° |
| 2026-04-23 20:30 | 25.24537 | 55.37424 | 49 ft | 3 kts | 300° |
| 2026-04-23 20:30 | 25.24573 | 55.37354 | 50 ft | 6 kts | 301° |
| 2026-04-23 20:30 | 25.24602 | 55.37302 | 49 ft | 9 kts | 302° |
| 2026-04-23 20:31 | 25.24646 | 55.37225 | 47 ft | 13 kts | 302° |
| 2026-04-23 20:31 | 25.24702 | 55.37124 | 45 ft | 16 kts | 301° |
| 2026-04-23 20:31 | 25.24764 | 55.37011 | 44 ft | 18 kts | 302° |
| 2026-04-23 20:31 | 25.24829 | 55.36891 | 45 ft | 18 kts | 298° |
| 2026-04-23 20:32 | 25.24865 | 55.36756 | 45 ft | 18 kts | 283° |
| 2026-04-23 20:32 | 25.24914 | 55.36620 | 45 ft | 19 kts | 299° |
| 2026-04-23 20:32 | 25.24991 | 55.36480 | 40 ft | 23 kts | 301° |
| 2026-04-23 20:32 | 25.25083 | 55.36317 | 33 ft | 26 kts | 302° |
| 2026-04-23 20:33 | 25.25172 | 55.36152 | 39 ft | 23 kts | 302° |
| 2026-04-23 20:33 | 25.25264 | 55.35988 | 34 ft | 26 kts | 298° |
| 2026-04-23 20:33 | 25.25358 | 55.35822 | 36 ft | 24 kts | 304° |
| 2026-04-23 20:33 | 25.25447 | 55.35653 | 32 ft | 26 kts | 301° |
| 2026-04-23 20:34 | 25.25549 | 55.35476 | 28 ft | 27 kts | 303° |
| 2026-04-23 20:34 | 25.25646 | 55.35302 | 31 ft | 25 kts | 302° |
| 2026-04-23 20:34 | 25.25725 | 55.35161 | 30 ft | 12 kts | 301° |
| 2026-04-23 20:34 | 25.25764 | 55.35089 | 30 ft | 5 kts | 301° |
| 2026-04-23 20:35 | 25.25781 | 55.35057 | 30 ft | 2 kts | 301° |
| 2026-04-23 20:35 | 25.25801 | 55.35019 | 30 ft | 9 kts | 299° |
| 2026-04-23 20:35 | 25.25841 | 55.34939 | 30 ft | 12 kts | 299° |
| 2026-04-23 20:35 | 25.25856 | 55.34845 | 30 ft | 13 kts | 265° |